Home > Products > Valid Products > MTR

000
SAUS45 KPIH 291152
MTRSNT
METAR KSNT 291151Z AUTO 13006KT 14/03 A3010 RMK AO1 SLP080 T01390033
10156 20139 56015





000
SAUS45 KPIH 291152
MTRSNT
METAR KSNT 291151Z AUTO 13006KT 14/03 A3010 RMK AO1 SLP080 T01390033
10156 20139 56015





000
SAUS45 KPIH 291052
MTRSNT
METAR KSNT 291051Z AUTO 05004KT 14/03 A3012 RMK AO1 SLP085 T01440033





000
SAUS45 KPIH 290952
MTRSNT
METAR KSNT 290951Z AUTO 14005KT 16/03 A3014 RMK AO1 SLP092 T01560033





000
SAUS45 KPIH 290952
MTRSNT
METAR KSNT 290951Z AUTO 14005KT 16/03 A3014 RMK AO1 SLP092 T01560033





000
SAUS45 KPIH 290852
MTRSNT
METAR KSNT 290851Z AUTO 16006KT 16/03 A3016 RMK AO1 SLP093 T01560028
58013





000
SAUS45 KPIH 290752
MTRSNT
METAR KSNT 290751Z AUTO 09004KT 15/03 A3018 RMK AO1 SLP101 T01500033





000
SAUS45 KPIH 290652
MTRSNT
METAR KSNT 290651Z AUTO 10003KT 14/03 A3021 RMK AO1 SLP118 T01440028
402890011





000
SAUS45 KPIH 290552
MTRSNT
METAR KSNT 290551Z AUTO 19004KT 13/02 A3020 RMK AO1 SLP129 T01330022
10267 20122 53002





000
SAUS45 KPIH 290452
MTRSNT
METAR KSNT 290451Z AUTO 15004KT 13/02 A3019 RMK AO1 SLP139 T01280017





000
SAUS45 KPIH 290452
MTRSNT
METAR KSNT 290451Z AUTO 15004KT 13/02 A3019 RMK AO1 SLP139 T01280017





000
SAUS45 KPIH 290352
MTRSNT
METAR KSNT 290351Z AUTO 23003KT 18/02 A3019 RMK AO1 SLP136 T01830022





000
SAUS45 KPIH 290252
MTRSNT
METAR KSNT 290251Z AUTO 27003KT 23/02 A3019 RMK AO1 SLP134 T02280022
53005





000
SAUS45 KPIH 290152
MTRSNT
METAR KSNT 290151Z AUTO 00000KT 23/02 A3018 RMK AO1 SLP141 T02330022





000
SAUS45 KPIH 290152
MTRSNT
METAR KSNT 290151Z AUTO 00000KT 23/02 A3018 RMK AO1 SLP141 T02330022





000
SAUS45 KPIH 290052
MTRSNT
METAR KSNT 290051Z AUTO 00000KT 25/01 A3018 RMK AO1 SLP138 T02500011





000
SAUS45 KPIH 290052
MTRSNT
METAR KSNT 290051Z AUTO 00000KT 25/01 A3018 RMK AO1 SLP138 T02500011





000
SAUS45 KPIH 282352
MTRSNT
METAR KSNT 282351Z AUTO VRB04KT 27/00 A3017 RMK AO1 SLP132 T02670000
10289 20206 56014





000
SAUS45 KPIH 282352
MTRSNT
METAR KSNT 282351Z AUTO VRB04KT 27/00 A3017 RMK AO1 SLP132 T02670000
10289 20206 56014





000
SAUS45 KPIH 282252
MTRSNT
METAR KSNT 282251Z AUTO 14006KT 26/01 A3019 RMK AO1 SLP139 T02610006





000
SAUS45 KPIH 282252
MTRSNT
METAR KSNT 282251Z AUTO 14006KT 26/01 A3019 RMK AO1 SLP139 T02610006





000
SAUS45 KPIH 282152
MTRSNT
METAR KSNT 282151Z AUTO 16008KT 26/00 A3021 RMK AO1 SLP141 T02560000





000
SAUS45 KPIH 282052
MTRSNT
METAR KSNT 282051Z AUTO VRB05G16KT 27/00 A3023 RMK AO1 SLP140
T02720000 56013





000
SAUS45 KPIH 282052
MTRSNT
METAR KSNT 282051Z AUTO VRB05G16KT 27/00 A3023 RMK AO1 SLP140
T02720000 56013





000
SAUS45 KPIH 281952
MTRSNT
METAR KSNT 281951Z AUTO VRB06G20KT 28/00 A3023 RMK AO1 SLP136
T02830000





000
SAUS45 KPIH 281852
MTRSNT
METAR KSNT 281851Z AUTO VRB06G14KT 26/01 A3025 RMK AO1 SLP143
T02610006





000
SAUS45 KPIH 281852
MTRSNT
METAR KSNT 281851Z AUTO VRB06G14KT 26/01 A3025 RMK AO1 SLP143
T02610006





000
SAUS45 KPIH 281752
MTRSNT
METAR KSNT 281751Z AUTO 30005KT 21/02 A3027 RMK AO1 SLP162 T02110022
10211 20011 58018





000
SAUS45 KPIH 281652
MTRSNT
METAR KSNT 281651Z AUTO VRB04KT 16/01 A3030 RMK AO1 SLP177 T01610011





000
SAUS45 KPIH 281552
MTRSNT
METAR KSNT 281551Z AUTO 00000KT 12/00 A3032 RMK AO1 SLP193 T01170000





000
SAUS45 KPIH 281452
MTRSNT
METAR KSNT 281451Z AUTO 00000KT 08/M01 A3034 RMK AO1 SLP200
T00781011 50001





000
SAUS45 KPIH 281452
MTRSNT
METAR KSNT 281451Z AUTO 00000KT 08/M01 A3034 RMK AO1 SLP200
T00781011 50001





000
SAUS45 KPIH 281352
MTRSNT
METAR KSNT 281351Z AUTO 00000KT 03/M02 A3034 RMK AO1 SLP199
T00331017





000
SAUS45 KPIH 281252
MTRSNT
METAR KSNT 281251Z AUTO 00000KT 01/M03 A3034 RMK AO1 SLP195
T00111028





000
SAUS45 KPIH 281152
MTRSNT
METAR KSNT 281151Z AUTO 00000KT 02/M03 A3033 RMK AO1 SLP191
T00221028 10122 20017 50001





000
SAUS45 KPIH 281152
MTRSNT
METAR KSNT 281151Z AUTO 00000KT 02/M03 A3033 RMK AO1 SLP191
T00221028 10122 20017 50001





000
SAUS45 KPIH 281052
MTRSNT
METAR KSNT 281051Z AUTO 00000KT 03/M03 A3034 RMK AO1 SLP189
T00281028





000
SAUS45 KPIH 280952
MTRSNT
METAR KSNT 280951Z AUTO 00000KT 04/M03 A3033 RMK AO1 SLP183
T00441028





000
SAUS45 KPIH 280852
MTRSNT
METAR KSNT 280851Z AUTO 00000KT 06/M03 A3033 RMK AO1 SLP181
T00611028 50000





000
SAUS45 KPIH 280752
MTRSNT
METAR KSNT 280751Z AUTO 00000KT 07/M03 A3033 RMK AO1 SLP183
T00671028





000
SAUS45 KPIH 280752
MTRSNT
METAR KSNT 280751Z AUTO 00000KT 07/M03 A3033 RMK AO1 SLP183
T00671028





000
SAUS45 KPIH 280652
MTRSNT
METAR KSNT 280651Z AUTO 00000KT 09/M03 A3032 RMK AO1 SLP174
T00891028 402720050





000
SAUS45 KPIH 280652
MTRSNT
METAR KSNT 280651Z AUTO 00000KT 09/M03 A3032 RMK AO1 SLP174
T00891028 402720050





000
SAUS45 KPIH 280552
MTRSNT
METAR KSNT 280551Z AUTO 19003KT 10/M02 A3033 RMK AO1 SLP181
T01001022 10261 20094 51012





000
SAUS45 KPIH 280452
MTRSNT
METAR KSNT 280451Z AUTO 20004KT 13/M02 A3032 RMK AO1 SLP179
T01281022





000
SAUS45 KPIH 280452
MTRSNT
METAR KSNT 280451Z AUTO 20004KT 13/M02 A3032 RMK AO1 SLP179
T01281022





000
SAUS45 KPIH 280352
MTRSNT
METAR KSNT 280351Z AUTO 19004KT 13/M02 A3031 RMK AO1 SLP187
T01281017





000
SAUS45 KPIH 280252
MTRSNT
METAR KSNT 280251Z AUTO VRB03KT 17/M02 A3028 RMK AO1 SLP174
T01671022 53006





000
SAUS45 KPIH 280252
MTRSNT
METAR KSNT 280251Z AUTO VRB03KT 17/M02 A3028 RMK AO1 SLP174
T01671022 53006





000
SAUS45 KPIH 280152
MTRSNT
METAR KSNT 280151Z AUTO 29003KT 22/M02 A3027 RMK AO1 SLP165
T02171022





000
SAUS45 KPIH 280152
MTRSNT
METAR KSNT 280151Z AUTO 29003KT 22/M02 A3027 RMK AO1 SLP165
T02171022





000
SAUS45 KPIH 280052
MTRSNT
METAR KSNT 280051Z AUTO 31008KT 270V330 26/M03 A3026 RMK AO1 SLP156
T02561033





000
SAUS45 KPIH 280052
MTRSNT
METAR KSNT 280051Z AUTO 31008KT 270V330 26/M03 A3026 RMK AO1 SLP156
T02561033





000
SAUS45 KPIH 272352
MTRSNT
METAR KSNT 272351Z AUTO VRB05KT 26/M04 A3026 RMK AO1 SLP152
T02561044 10272 20211 56013





000
SAUS45 KPIH 272252
MTRSNT
METAR KSNT 272251Z AUTO 27007G15KT 26/M03 A3027 RMK AO1 SLP153
T02611033





000
SAUS45 KPIH 272152
MTRSNT
METAR KSNT 272151Z AUTO 34007KT 27/M03 A3028 RMK AO1 SLP153
T02671033





000
SAUS45 KPIH 272052
MTRSNT
METAR KSNT 272051Z AUTO 24006KT 24/M03 A3031 RMK AO1 SLP167
T02441033 58010





000
SAUS45 KPIH 271952
MTRSNT
METAR KSNT 271951Z AUTO 26004KT 24/M01 A3033 RMK AO1 SLP165
T02391006





000
SAUS45 KPIH 271852
MTRSNT
METAR KSNT 271851Z AUTO VRB04KT 24/04 A3033 RMK AO1 SLP164 T02390044





000
SAUS45 KPIH 271752
MTRSNT
METAR KSNT 271751Z AUTO 32004KT 21/06 A3035 RMK AO1 SLP175 T02110061
10217 20050 58006





000
SAUS45 KPIH 271752
MTRSNT
METAR KSNT 271751Z AUTO 32004KT 21/06 A3035 RMK AO1 SLP175 T02110061
10217 20050 58006





000
SAUS45 KPIH 271652
MTRSNT
METAR KSNT 271651Z AUTO 35003KT 18/06 A3036 RMK AO1 SLP184 T01780061





000
SAUS45 KPIH 271552
MTRSNT
METAR KSNT 271551Z AUTO 00000KT 14/06 A3037 RMK AO1 SLP192 T01390061





000
SAUS45 KPIH 271452
MTRSNT
METAR KSNT 271451Z AUTO 00000KT 11/06 A3037 RMK AO1 SLP198 T01060056
51007





000
SAUS45 KPIH 271452
MTRSNT
METAR KSNT 271451Z AUTO 00000KT 11/06 A3037 RMK AO1 SLP198 T01060056
51007





000
SAUS45 KPIH 271352
MTRSNT
METAR KSNT 271351Z AUTO 00000KT 07/05 A3036 RMK AO1 SLP198 T00720050





000
SAUS45 KPIH 271252
MTRSNT
METAR KSNT 271251Z AUTO 17003KT 06/03 A3035 RMK AO1 SLP194 T00560033





000
SAUS45 KPIH 271252
MTRSNT
METAR KSNT 271251Z AUTO 17003KT 06/03 A3035 RMK AO1 SLP194 T00560033





000
SAUS45 KPIH 271152
MTRSNT
METAR KSNT 271151Z AUTO 00000KT 07/04 A3034 RMK AO1 SLP181 T00720044
10156 20067 53004





000
SAUS45 KPIH 271152
MTRSNT
METAR KSNT 271151Z AUTO 00000KT 07/04 A3034 RMK AO1 SLP181 T00720044
10156 20067 53004





000
SAUS45 KPIH 271052
MTRSNT
METAR KSNT 271051Z AUTO 00000KT 08/04 A3033 RMK AO1 SLP172 T00780044





000
SAUS45 KPIH 270952
MTRSNT
METAR KSNT 270951Z AUTO VRB04KT 09/06 A3033 RMK AO1 SLP162 T00940056





000
SAUS45 KPIH 270852
MTRSNT
METAR KSNT 270851Z AUTO 00000KT 10/05 A3033 RMK AO1 SLP162 T01000050
56010





000
SAUS45 KPIH 270852
MTRSNT
METAR KSNT 270851Z AUTO 00000KT 10/05 A3033 RMK AO1 SLP162 T01000050
56010





000
SAUS45 KPIH 270752
MTRSNT
METAR KSNT 270751Z AUTO 14004KT 14/06 A3033 RMK AO1 SLP153 T01390061





000
SAUS45 KPIH 270652
MTRSNT
METAR KSNT 270651Z AUTO 14006KT 14/06 A3035 RMK AO1 SLP162 T01440061
403060017





000
SAUS45 KPIH 270652
MTRSNT
METAR KSNT 270651Z AUTO 14006KT 14/06 A3035 RMK AO1 SLP162 T01440061
403060017





000
SAUS45 KPIH 270552
MTRSNT
METAR KSNT 270551Z AUTO 12009KT 16/07 A3036 RMK AO1 SLP172 T01560067
10261 20156 51020





000
SAUS45 KPIH 270552
MTRSNT
METAR KSNT 270551Z AUTO 12009KT 16/07 A3036 RMK AO1 SLP172 T01560067
10261 20156 51020





000
SAUS45 KPIH 270452
MTRSNT
METAR KSNT 270451Z AUTO 11007KT 16/06 A3036 RMK AO1 SLP181 T01610061





000
SAUS45 KPIH 270352
MTRSNT
METAR KSNT 270351Z AUTO 12008KT 18/06 A3033 RMK AO1 SLP182 T01780061





000
SAUS45 KPIH 270252
MTRSNT
METAR KSNT 270251Z AUTO 18009G17KT 19/05 A3029 RMK AO1 SLP176
T01940050 53023





000
SAUS45 KPIH 270252
MTRSNT
METAR KSNT 270251Z AUTO 18009G17KT 19/05 A3029 RMK AO1 SLP176
T01940050 53023





000
SAUS45 KPIH 270152
MTRSNT
METAR KSNT 270151Z AUTO 15007KT 21/03 A3026 RMK AO1 PK WND
13026/0053 SLP169 T02110033





000
SAUS45 KPIH 270052
MTRSNT
METAR KSNT 270051Z AUTO 15015G22KT 23/01 A3024 RMK AO1 PK WND
27032/2353 SLP164 T02330011





000
SAUS45 KPIH 262352
MTRSNT
METAR KSNT 262351Z AUTO 26014G23KT 26/M02 A3021 RMK AO1 SLP145
T02561017 10306 20244 55004





000
SAUS45 KPIH 262352
MTRSNT
METAR KSNT 262351Z AUTO 26014G23KT 26/M02 A3021 RMK AO1 SLP145
T02561017 10306 20244 55004





000
SAUS45 KPIH 262252
MTRSNT
METAR KSNT 262251Z AUTO 29006KT 28/M03 A3020 RMK AO1 SLP133
T02781033





000
SAUS45 KPIH 262152
MTRSNT
METAR KSNT 262151Z AUTO 14007KT 090V210 30/M03 A3020 RMK AO1 SLP125
T03001028





000
SAUS45 KPIH 262152
MTRSNT
METAR KSNT 262151Z AUTO 14007KT 090V210 30/M03 A3020 RMK AO1 SLP125
T03001028





000
SAUS45 KPIH 262052
MTRSNT
METAR KSNT 262051Z AUTO 18006KT 28/M01 A3023 RMK AO1 SLP135
T02831011 56015





000
SAUS45 KPIH 261952
MTRSNT
METAR KSNT 261951Z AUTO VRB04KT 30/M02 A3023 RMK AO1 SLP129
T03001017





000
SAUS45 KPIH 261852
MTRSNT
METAR KSNT 261851Z AUTO VRB06KT 29/M02 A3025 RMK AO1 SLP134
T02891022





000
SAUS45 KPIH 261752
MTRSNT
METAR KSNT 261751Z AUTO VRB04KT 24/00 A3028 RMK AO1 SLP153 T02440000
10244 20017 58018





000
SAUS45 KPIH 261752
MTRSNT
METAR KSNT 261751Z AUTO VRB04KT 24/00 A3028 RMK AO1 SLP153 T02440000
10244 20017 58018





000
SAUS45 KPIH 261652
MTRSNT
METAR KSNT 261651Z AUTO 00000KT 19/00 A3030 RMK AO1 SLP170 T01940000





000
SAUS45 KPIH 261552
MTRSNT
METAR KSNT 261551Z AUTO 01003KT 13/M01 A3033 RMK AO1 SLP183
T01331006





000
SAUS45 KPIH 261452
MTRSNT
METAR KSNT 261451Z AUTO 00000KT 08/M02 A3034 RMK AO1 SLP194
T00831017 51008





000
SAUS45 KPIH 261452
MTRSNT
METAR KSNT 261451Z AUTO 00000KT 08/M02 A3034 RMK AO1 SLP194
T00831017 51008





000
SAUS45 KPIH 261352
MTRSNT
METAR KSNT 261351Z AUTO 00000KT 04/M02 A3034 RMK AO1 SLP187
T00441017





000
SAUS45 KPIH 261252
MTRSNT
METAR KSNT 261251Z AUTO 00000KT 02/M03 A3032 RMK AO1 SLP181
T00171033





000
SAUS45 KPIH 261252
MTRSNT
METAR KSNT 261251Z AUTO 00000KT 02/M03 A3032 RMK AO1 SLP181
T00171033





    US Dept of Commerce
    National Oceanic and Atmospheric Administration
    National Weather Service
    1325 East West Highway
    Silver Spring, MD 20910
    Page Author: NWS Internet Services Team
Disclaimer
Information Quality
Credits
Glossary
Privacy Policy
Freedom of Information Act (FOIA)
About Us
Career Opportunities